Time;durP1;ratioP1;P1;durP2;ratioP2;P2;SDS_P1;SDS_P2;PMS_P1;PMS_P2;Temp;Humidity;BMP_temperature;BMP_pressure;BME280_temperature;BME280_humidity;BME280_pressure;Samples;Min_cycle;Max_cycle;Signal;HPM_P1;HPM_P2
2022/02/20 00:01:03;;;;;;;28.98;14.38;;;;;;;;;;5113248;28;20031;-62
2022/02/20 00:03:29;;;;;;;27.13;13.95;;;;;;;;;;5113271;28;20024;-63
2022/02/20 00:05:55;;;;;;;27.95;13.45;;;;;;;;;;5113491;28;20050;-63
2022/02/20 00:08:21;;;;;;;23.92;12.80;;;;;;;;;;5094940;28;20034;-63
2022/02/20 00:10:48;;;;;;;25.00;11.52;;;;;;;;;;5113069;28;20449;-63
2022/02/20 00:13:15;;;;;;;14.75;7.70;;;;;;;;;;5094793;28;20059;-63
2022/02/20 00:15:45;;;;;;;14.18;6.65;;;;;;;;;;5112700;28;20070;-63
2022/02/20 00:18:11;;;;;;;15.35;6.57;;;;;;;;;;5094889;28;20410;-65
2022/02/20 00:20:38;;;;;;;9.15;5.07;;;;;;;;;;5112748;28;20448;-63
2022/02/20 00:23:05;;;;;;;10.02;4.30;;;;;;;;;;5113036;28;20081;-63
2022/02/20 00:25:34;;;;;;;8.75;4.40;;;;;;;;;;5094727;28;20387;-62
2022/02/20 00:28:00;;;;;;;3.78;1.95;;;;;;;;;;5094819;28;20028;-62
2022/02/20 00:30:27;;;;;;;6.97;1.95;;;;;;;;;;5112917;28;20072;-64
2022/02/20 00:32:54;;;;;;;4.05;1.67;;;;;;;;;;5112952;28;20077;-63
2022/02/20 00:35:20;;;;;;;3.53;1.17;;;;;;;;;;5094674;28;20023;-63
2022/02/20 00:37:47;;;;;;;3.50;1.00;;;;;;;;;;5112904;28;20032;-62
2022/02/20 00:40:13;;;;;;;4.05;1.13;;;;;;;;;;5114384;28;20110;-62
2022/02/20 00:42:39;;;;;;;2.28;1.20;;;;;;;;;;5098346;28;20379;-62
2022/02/20 00:45:24;;;;;;;3.42;1.02;;;;;;;;;;5116612;28;20031;-62
2022/02/20 00:47:50;;;;;;;2.88;1.50;;;;;;;;;;5116619;28;20102;-62
2022/02/20 00:50:16;;;;;;;5.57;1.50;;;;;;;;;;5116485;28;20036;-62
2022/02/20 00:52:43;;;;;;;3.88;1.17;;;;;;;;;;5116480;28;20027;-62
2022/02/20 00:55:09;;;;;;;4.38;1.73;;;;;;;;;;5098085;28;20038;-63
2022/02/20 00:57:36;;;;;;;3.65;1.30;;;;;;;;;;5116376;28;20027;-64
2022/02/20 01:00:03;;;;;;;3.78;1.27;;;;;;;;;;5116388;28;20077;-62
2022/02/20 01:02:29;;;;;;;2.53;1.33;;;;;;;;;;5116543;28;20131;-62
2022/02/20 01:04:55;;;;;;;3.85;1.55;;;;;;;;;;5116232;28;20543;-63
2022/02/20 01:07:22;;;;;;;9.88;2.13;;;;;;;;;;5116212;28;20081;-62
2022/02/20 01:09:49;;;;;;;3.17;1.50;;;;;;;;;;5116118;28;20027;-62
2022/02/20 01:12:16;;;;;;;2.42;1.20;;;;;;;;;;5115809;28;20444;-64
2022/02/20 01:14:43;;;;;;;1.00;0.90;;;;;;;;;;5115815;28;20086;-63
2022/02/20 01:17:10;;;;;;;4.30;1.10;;;;;;;;;;5115778;28;20084;-62
2022/02/20 01:19:36;;;;;;;3.15;1.35;;;;;;;;;;5115931;28;20153;-63
2022/02/20 01:22:02;;;;;;;1.15;1.05;;;;;;;;;;5115911;28;20058;-63
2022/02/20 01:24:29;;;;;;;1.85;0.85;;;;;;;;;;5115836;28;20027;-62
2022/02/20 01:26:55;;;;;;;3.78;1.58;;;;;;;;;;5097576;28;20122;-62
2022/02/20 01:29:22;;;;;;;3.60;1.40;;;;;;;;;;5115439;28;20493;-62
2022/02/20 01:31:49;;;;;;;2.60;1.35;;;;;;;;;;5115719;28;20119;-63
2022/02/20 01:34:15;;;;;;;2.63;1.17;;;;;;;;;;5115336;28;20437;-64
2022/02/20 01:36:42;;;;;;;2.55;1.30;;;;;;;;;;5097234;28;20024;-62
2022/02/20 01:39:08;;;;;;;3.92;1.27;;;;;;;;;;5115605;28;20122;-62
2022/02/20 01:41:37;;;;;;;2.47;1.10;;;;;;;;;;5115494;28;20019;-64
2022/02/20 01:44:06;;;;;;;2.55;0.88;;;;;;;;;;5115433;28;20038;-63
2022/02/20 01:46:33;;;;;;;1.85;0.88;;;;;;;;;;5115428;28;20095;-63
2022/02/20 01:48:59;;;;;;;3.35;1.20;;;;;;;;;;5115359;28;20066;-62
2022/02/20 01:51:25;;;;;;;4.15;1.30;;;;;;;;;;5114590;28;20097;-65
2022/02/20 01:53:52;;;;;;;4.07;1.10;;;;;;;;;;5115288;28;20024;-62
2022/02/20 01:56:18;;;;;;;1.75;0.90;;;;;;;;;;5115207;28;20027;-63
2022/02/20 01:58:45;;;;;;;2.28;1.13;;;;;;;;;;5115238;28;20019;-62
2022/02/20 02:01:11;;;;;;;1.55;1.05;;;;;;;;;;5115133;28;20023;-64
2022/02/20 02:03:37;;;;;;;2.20;0.70;;;;;;;;;;5115068;28;20034;-62
2022/02/20 02:06:04;;;;;;;3.55;0.90;;;;;;;;;;5115041;28;20020;-65
2022/02/20 02:08:31;;;;;;;3.97;1.30;;;;;;;;;;5096715;28;20020;-62
2022/02/20 02:10:57;;;;;;;1.58;0.60;;;;;;;;;;5114619;28;20537;-64
2022/02/20 02:13:23;;;;;;;2.05;1.00;;;;;;;;;;5096546;28;20134;-63
2022/02/20 02:15:50;;;;;;;4.40;0.90;;;;;;;;;;5114828;28;20114;-65
2022/02/20 02:18:17;;;;;;;1.27;0.93;;;;;;;;;;5114790;28;20592;-65
2022/02/20 02:20:43;;;;;;;2.75;0.93;;;;;;;;;;5114780;28;20019;-64
2022/02/20 02:23:10;;;;;;;5.15;1.15;;;;;;;;;;5114690;28;20098;-65
2022/02/20 02:25:37;;;;;;;0.98;0.70;;;;;;;;;;5096276;28;20024;-65
2022/02/20 02:28:04;;;;;;;3.28;0.98;;;;;;;;;;5096253;28;20020;-64
2022/02/20 02:30:30;;;;;;;2.33;1.20;;;;;;;;;;5114518;28;20110;-63
2022/02/20 02:32:56;;;;;;;4.07;1.25;;;;;;;;;;5114800;28;20467;-62
2022/02/20 02:35:22;;;;;;;2.85;1.15;;;;;;;;;;5114472;28;20118;-63
2022/02/20 02:37:49;;;;;;;3.05;1.30;;;;;;;;;;5096123;28;20153;-62
2022/02/20 02:40:15;;;;;;;5.88;1.85;;;;;;;;;;5096137;28;20122;-62
2022/02/20 02:42:42;;;;;;;4.85;1.63;;;;;;;;;;5114344;28;20019;-63
2022/02/20 02:45:08;;;;;;;2.92;1.48;;;;;;;;;;5095966;28;20051;-63
2022/02/20 02:47:35;;;;;;;2.10;1.10;;;;;;;;;;5114223;28;20059;-62
2022/02/20 02:50:01;;;;;;;2.63;1.23;;;;;;;;;;5114147;28;20076;-62
2022/02/20 02:52:27;;;;;;;2.45;1.10;;;;;;;;;;5095780;28;20032;-62
2022/02/20 02:54:53;;;;;;;2.25;1.30;;;;;;;;;;5095789;28;20500;-62
2022/02/20 02:57:20;;;;;;;3.83;1.58;;;;;;;;;;5095751;28;20387;-62
2022/02/20 02:59:46;;;;;;;4.80;1.55;;;;;;;;;;5095755;28;20460;-62
2022/02/20 03:02:12;;;;;;;2.05;1.27;;;;;;;;;;5113714;28;20572;-63
2022/02/20 03:04:38;;;;;;;4.55;1.35;;;;;;;;;;5112972;28;20115;-62
2022/02/20 03:07:13;;;;;;;4.93;1.15;;;;;;;;;;5113945;28;20080;-63
2022/02/20 03:09:40;;;;;;;3.53;1.40;;;;;;;;;;5093828;28;20019;-63
2022/02/20 03:12:08;;;;;;;2.95;1.25;;;;;;;;;;5113824;28;20024;-63
2022/02/20 03:14:34;;;;;;;5.35;1.15;;;;;;;;;;5113413;28;20044;-63
2022/02/20 03:17:01;;;;;;;3.42;1.42;;;;;;;;;;5113751;28;20019;-63
2022/02/20 03:19:27;;;;;;;2.25;1.50;;;;;;;;;;5113826;28;20055;-64
2022/02/20 03:21:53;;;;;;;2.95;1.10;;;;;;;;;;5113632;28;20035;-64
2022/02/20 03:24:19;;;;;;;3.72;1.30;;;;;;;;;;5113699;28;20039;-61
2022/02/20 03:26:46;;;;;;;7.00;1.45;;;;;;;;;;5095308;28;20464;-63
2022/02/20 03:29:12;;;;;;;3.35;1.20;;;;;;;;;;5095320;28;20108;-62
2022/02/20 03:31:38;;;;;;;3.53;0.98;;;;;;;;;;5095332;28;20464;-62
2022/02/20 03:34:04;;;;;;;4.90;0.93;;;;;;;;;;5113260;28;20069;-62
2022/02/20 03:36:32;;;;;;;3.58;1.23;;;;;;;;;;5113575;28;20066;-62
2022/02/20 03:38:58;;;;;;;2.33;1.13;;;;;;;;;;5113168;28;20054;-62
2022/02/20 03:41:24;;;;;;;3.80;1.55;;;;;;;;;;5113562;28;20040;-62
2022/02/20 03:43:51;;;;;;;3.55;1.23;;;;;;;;;;5113470;28;20019;-62
2022/02/20 03:46:18;;;;;;;2.40;1.10;;;;;;;;;;5095109;28;20110;-62
2022/02/20 03:48:44;;;;;;;1.77;1.10;;;;;;;;;;5113331;28;20031;-62
2022/02/20 03:51:10;;;;;;;7.95;1.40;;;;;;;;;;5113738;28;20035;-62
2022/02/20 03:53:37;;;;;;;3.25;1.00;;;;;;;;;;5113347;28;20032;-62
2022/02/20 03:56:03;;;;;;;5.82;1.30;;;;;;;;;;5113333;28;20024;-63
2022/02/20 03:58:29;;;;;;;3.25;1.45;;;;;;;;;;5113012;28;20030;-62
2022/02/20 04:00:56;;;;;;;2.35;1.02;;;;;;;;;;5113074;28;20070;-63
2022/02/20 04:03:22;;;;;;;5.70;1.45;;;;;;;;;;5113280;28;20096;-63
2022/02/20 04:05:48;;;;;;;3.45;1.67;;;;;;;;;;5113285;28;20059;-63
2022/02/20 04:08:15;;;;;;;4.90;1.80;;;;;;;;;;5113250;28;20020;-62
2022/02/20 04:10:41;;;;;;;3.83;1.95;;;;;;;;;;5113187;28;20110;-63
2022/02/20 04:13:07;;;;;;;12.50;2.50;;;;;;;;;;5113211;28;20476;-63
2022/02/20 04:15:33;;;;;;;5.20;1.92;;;;;;;;;;5096561;28;20180;-63
2022/02/20 04:18:00;;;;;;;4.72;1.58;;;;;;;;;;5117159;28;20031;-63
2022/02/20 04:20:26;;;;;;;4.25;1.73;;;;;;;;;;5098813;28;20035;-63
2022/02/20 04:22:52;;;;;;;3.63;1.52;;;;;;;;;;5117108;28;20107;-63
2022/02/20 04:25:18;;;;;;;4.53;1.52;;;;;;;;;;5117090;28;20028;-63
2022/02/20 04:27:44;;;;;;;2.30;1.02;;;;;;;;;;5116986;28;20028;-63
2022/02/20 04:30:13;;;;;;;3.15;1.55;;;;;;;;;;5116945;28;20028;-63
2022/02/20 04:32:40;;;;;;;3.72;1.40;;;;;;;;;;5116912;28;20030;-63
2022/02/20 04:35:06;;;;;;;5.82;1.50;;;;;;;;;;5116866;28;20050;-63
2022/02/20 04:37:32;;;;;;;3.47;1.65;;;;;;;;;;5116807;28;20106;-63
2022/02/20 04:40:00;;;;;;;4.03;1.33;;;;;;;;;;5098154;28;20036;-63
2022/02/20 04:42:26;;;;;;;2.65;1.33;;;;;;;;;;5116642;28;20375;-63
2022/02/20 04:44:53;;;;;;;3.22;1.30;;;;;;;;;;5116661;28;20496;-63
2022/02/20 04:47:19;;;;;;;4.40;1.48;;;;;;;;;;5116899;28;20112;-62
2022/02/20 04:49:45;;;;;;;5.07;1.60;;;;;;;;;;5098210;28;20019;-63
2022/02/20 04:52:11;;;;;;;2.85;1.25;;;;;;;;;;5116591;28;20031;-63
2022/02/20 04:54:38;;;;;;;2.95;1.30;;;;;;;;;;5116454;28;20051;-63
2022/02/20 04:57:04;;;;;;;4.88;1.25;;;;;;;;;;5116516;28;20055;-63
2022/02/20 04:59:30;;;;;;;8.05;1.80;;;;;;;;;;5098005;28;20024;-63
2022/02/20 05:01:56;;;;;;;5.40;2.15;;;;;;;;;;5098104;28;20074;-63
2022/02/20 05:04:23;;;;;;;3.28;1.83;;;;;;;;;;5116214;28;20453;-63
2022/02/20 05:06:49;;;;;;;5.30;1.60;;;;;;;;;;5116258;28;20046;-63
2022/02/20 05:09:15;;;;;;;4.63;1.90;;;;;;;;;;5116087;28;20030;-63
2022/02/20 05:11:41;;;;;;;4.95;2.13;;;;;;;;;;5116170;28;20114;-62
2022/02/20 05:14:08;;;;;;;3.75;1.80;;;;;;;;;;5115448;28;20546;-63
2022/02/20 05:16:34;;;;;;;5.70;1.90;;;;;;;;;;5116069;28;20031;-63
2022/02/20 05:19:00;;;;;;;5.70;2.40;;;;;;;;;;5097744;28;20458;-63
2022/02/20 05:21:26;;;;;;;5.38;2.33;;;;;;;;;;5115970;28;20066;-63
2022/02/20 05:23:53;;;;;;;6.78;2.92;;;;;;;;;;5115884;28;20089;-63
2022/02/20 05:26:19;;;;;;;5.55;1.50;;;;;;;;;;5114698;28;20042;-62
2022/02/20 05:28:46;;;;;;;4.38;1.70;;;;;;;;;;5097404;28;20073;-63
2022/02/20 05:31:12;;;;;;;4.45;1.75;;;;;;;;;;5116066;28;20118;-63
2022/02/20 05:33:38;;;;;;;2.83;1.38;;;;;;;;;;5097379;28;20047;-63
2022/02/20 05:36:05;;;;;;;3.65;1.70;;;;;;;;;;5115696;28;20219;-63
2022/02/20 05:38:31;;;;;;;4.43;1.80;;;;;;;;;;5115647;28;20019;-63
2022/02/20 05:40:57;;;;;;;5.22;1.65;;;;;;;;;;5115928;28;20042;-62
2022/02/20 05:43:23;;;;;;;6.75;1.90;;;;;;;;;;5097195;28;20468;-63
2022/02/20 05:45:49;;;;;;;3.80;2.00;;;;;;;;;;5097272;28;20151;-63
2022/02/20 05:48:17;;;;;;;3.35;1.42;;;;;;;;;;5115413;28;20034;-64
2022/02/20 05:50:43;;;;;;;5.35;2.33;;;;;;;;;;5115340;28;20486;-63
2022/02/20 05:53:09;;;;;;;13.30;6.03;;;;;;;;;;5097039;28;20066;-62
2022/02/20 05:55:37;;;;;;;31.92;11.25;;;;;;;;;;5114958;28;20028;-62
2022/02/20 05:58:03;;;;;;;18.25;6.50;;;;;;;;;;5096737;28;20096;-63
2022/02/20 06:00:30;;;;;;;22.88;8.13;;;;;;;;;;5114428;28;20114;-63
2022/02/20 06:02:56;;;;;;;8.13;3.92;;;;;;;;;;5115080;28;20032;-63
2022/02/20 06:05:23;;;;;;;11.52;2.72;;;;;;;;;;5096769;28;20032;-62
2022/02/20 06:07:49;;;;;;;9.90;3.08;;;;;;;;;;5115041;28;20028;-62
2022/02/20 06:10:15;;;;;;;5.53;2.40;;;;;;;;;;5114918;28;20507;-63
2022/02/20 06:12:41;;;;;;;6.68;2.58;;;;;;;;;;5096635;28;20460;-63
2022/02/20 06:15:08;;;;;;;14.70;5.88;;;;;;;;;;5114471;28;20050;-63
2022/02/20 06:17:34;;;;;;;7.25;4.32;;;;;;;;;;5114841;28;20027;-62
2022/02/20 06:20:01;;;;;;;4.47;2.50;;;;;;;;;;5115082;28;20031;-62
2022/02/20 06:22:27;;;;;;;9.27;3.60;;;;;;;;;;5114770;28;20494;-63
2022/02/20 06:24:53;;;;;;;11.48;5.22;;;;;;;;;;5114433;28;20078;-62
2022/02/20 06:27:20;;;;;;;23.63;9.63;;;;;;;;;;5114359;28;20076;-63
2022/02/20 06:29:46;;;;;;;21.00;8.70;;;;;;;;;;5114539;28;20075;-63
2022/02/20 06:32:12;;;;;;;28.52;14.40;;;;;;;;;;5114876;28;20059;-63
2022/02/20 06:34:38;;;;;;;45.55;26.05;;;;;;;;;;5114535;28;20062;-63
2022/02/20 06:37:05;;;;;;;40.42;24.63;;;;;;;;;;5096098;28;20031;-63
2022/02/20 06:39:34;;;;;;;38.22;24.10;;;;;;;;;;5095930;28;20038;-63
2022/02/20 06:42:00;;;;;;;34.13;21.52;;;;;;;;;;5114426;28;20028;-63
2022/02/20 06:44:27;;;;;;;13.52;4.70;;;;;;;;;;5095968;28;20381;-63
2022/02/20 06:46:53;;;;;;;4.32;2.05;;;;;;;;;;5114285;28;20027;-63
2022/02/20 06:49:19;;;;;;;4.25;2.50;;;;;;;;;;5113868;28;20119;-63
2022/02/20 06:51:45;;;;;;;4.70;2.55;;;;;;;;;;5114222;28;20115;-63
2022/02/20 06:54:11;;;;;;;57.47;24.67;;;;;;;;;;5114111;28;20083;-63
2022/02/20 06:56:38;;;;;;;31.50;13.02;;;;;;;;;;5095772;28;20068;-63
2022/02/20 06:59:04;;;;;;;132.73;43.35;;;;;;;;;;5114051;28;20023;-63
2022/02/20 07:01:30;;;;;;;40.85;14.23;;;;;;;;;;5095812;28;20055;-63
2022/02/20 07:03:56;;;;;;;20.38;7.55;;;;;;;;;;5113927;28;20030;-63
2022/02/20 07:06:23;;;;;;;30.70;12.35;;;;;;;;;;5113948;28;20123;-63
2022/02/20 07:08:54;;;;;;;15.10;4.15;;;;;;;;;;5113779;28;20023;-62
2022/02/20 07:11:21;;;;;;;6.50;2.80;;;;;;;;;;5113940;28;20082;-62
2022/02/20 07:13:48;;;;;;;7.63;3.35;;;;;;;;;;5111472;28;20036;-63
2022/02/20 07:16:14;;;;;;;7.03;3.80;;;;;;;;;;5112991;28;20024;-63
2022/02/20 07:18:40;;;;;;;9.10;4.85;;;;;;;;;;5112489;28;20388;-63
2022/02/20 07:21:06;;;;;;;5.28;2.58;;;;;;;;;;5091596;28;20039;-63
2022/02/20 07:23:32;;;;;;;30.00;12.18;;;;;;;;;;5092721;28;20032;-64
2022/02/20 07:25:59;;;;;;;5.03;2.40;;;;;;;;;;5091949;28;20078;-63
2022/02/20 07:28:25;;;;;;;4.32;2.72;;;;;;;;;;5092976;28;20024;-64
2022/02/20 07:30:51;;;;;;;6.00;2.92;;;;;;;;;;5074903;28;20035;-62
2022/02/20 07:33:17;;;;;;;12.38;5.10;;;;;;;;;;5092958;28;20385;-64
2022/02/20 07:35:44;;;;;;;11.23;5.32;;;;;;;;;;5092809;28;20055;-65
2022/02/20 07:38:10;;;;;;;13.48;4.78;;;;;;;;;;5074722;28;20484;-64
2022/02/20 07:40:36;;;;;;;13.02;6.07;;;;;;;;;;5092687;28;20131;-64
2022/02/20 07:43:03;;;;;;;9.90;5.80;;;;;;;;;;5095796;28;20024;-64
2022/02/20 07:45:29;;;;;;;12.05;7.32;;;;;;;;;;5092812;28;20495;-64
2022/02/20 07:48:00;;;;;;;10.23;5.18;;;;;;;;;;5092916;28;20060;-64
2022/02/20 07:50:28;;;;;;;15.70;6.13;;;;;;;;;;5094841;28;20077;-63
2022/02/20 07:52:54;;;;;;;11.32;6.53;;;;;;;;;;5078077;28;20434;-63
2022/02/20 07:55:21;;;;;;;12.52;5.43;;;;;;;;;;5094898;28;20411;-63
2022/02/20 07:57:47;;;;;;;16.58;7.28;;;;;;;;;;5096657;28;20073;-63
2022/02/20 08:00:14;;;;;;;18.75;9.40;;;;;;;;;;5096845;28;20028;-70
2022/02/20 08:02:41;;;;;;;10.55;5.93;;;;;;;;;;5097226;28;20027;-65
2022/02/20 08:05:07;;;;;;;8.02;4.53;;;;;;;;;;5096846;28;20472;-64
2022/02/20 08:07:34;;;;;;;3.67;2.75;;;;;;;;;;5097076;28;20119;-64
2022/02/20 08:10:00;;;;;;;3.60;2.92;;;;;;;;;;5078438;28;20114;-67
2022/02/20 08:12:26;;;;;;;8.07;2.60;;;;;;;;;;5096779;28;20028;-67
2022/02/20 08:14:54;;;;;;;12.23;3.60;;;;;;;;;;5096657;28;20051;-67
2022/02/20 08:17:21;;;;;;;5.45;2.90;;;;;;;;;;5096694;28;20081;-67
2022/02/20 08:19:47;;;;;;;4.72;2.20;;;;;;;;;;5096588;28;20077;-71
2022/02/20 08:22:13;;;;;;;4.90;2.70;;;;;;;;;;5078228;28;20028;-65
2022/02/20 08:24:39;;;;;;;6.53;2.40;;;;;;;;;;5096492;28;20020;-65
2022/02/20 08:27:06;;;;;;;25.50;8.23;;;;;;;;;;5096438;28;20063;-65
2022/02/20 08:29:32;;;;;;;13.75;5.70;;;;;;;;;;5096295;28;20028;-65
2022/02/20 08:31:59;;;;;;;22.20;8.48;;;;;;;;;;5093575;28;20372;-66
2022/02/20 08:34:25;;;;;;;18.65;7.05;;;;;;;;;;5096075;28;20035;-70
2022/02/20 08:36:51;;;;;;;16.55;7.38;;;;;;;;;;5077876;28;20043;-65
2022/02/20 08:39:18;;;;;;;18.90;7.68;;;;;;;;;;5095766;28;20400;-65
2022/02/20 08:41:44;;;;;;;11.93;6.00;;;;;;;;;;5096214;28;20111;-66
2022/02/20 08:44:10;;;;;;;20.80;10.65;;;;;;;;;;5096303;28;20025;-64
2022/02/20 08:46:36;;;;;;;35.70;21.30;;;;;;;;;;5095976;28;20028;-64
2022/02/20 08:49:02;;;;;;;20.67;10.80;;;;;;;;;;5095914;28;20016;-67
2022/02/20 08:51:29;;;;;;;26.13;11.93;;;;;;;;;;5077678;28;20542;-66
2022/02/20 08:53:55;;;;;;;16.52;9.40;;;;;;;;;;5095944;28;20028;-64
2022/02/20 08:56:26;;;;;;;24.25;12.88;;;;;;;;;;5095850;28;20024;-65
2022/02/20 08:58:52;;;;;;;26.63;14.53;;;;;;;;;;5077656;28;20077;-64
2022/02/20 09:01:18;;;;;;;24.17;13.98;;;;;;;;;;5095543;28;20516;-63
2022/02/20 09:03:45;;;;;;;23.17;11.32;;;;;;;;;;5095782;28;20499;-63
2022/02/20 09:06:11;;;;;;;21.10;11.05;;;;;;;;;;5095608;28;20453;-65
2022/02/20 09:08:38;;;;;;;28.88;13.27;;;;;;;;;;5095666;28;20032;-67
2022/02/20 09:11:04;;;;;;;29.00;11.55;;;;;;;;;;5095509;28;20170;-66
2022/02/20 09:13:30;;;;;;;20.63;10.65;;;;;;;;;;5077281;28;20381;-63
2022/02/20 09:15:56;;;;;;;20.15;9.15;;;;;;;;;;5095581;28;20066;-64
2022/02/20 09:18:22;;;;;;;18.35;9.93;;;;;;;;;;5095286;28;20026;-68
2022/02/20 09:20:50;;;;;;;35.55;16.33;;;;;;;;;;5095356;28;20051;-65
2022/02/20 09:23:16;;;;;;;24.05;12.35;;;;;;;;;;5095481;28;20095;-66
2022/02/20 09:25:42;;;;;;;27.50;12.82;;;;;;;;;;5095399;28;20107;-65
2022/02/20 09:28:08;;;;;;;25.38;14.57;;;;;;;;;;5092030;28;20028;-68
2022/02/20 09:30:35;;;;;;;18.20;9.52;;;;;;;;;;5094910;28;20043;-65
2022/02/20 09:33:01;;;;;;;24.20;12.57;;;;;;;;;;5095236;28;20034;-66
2022/02/20 09:35:28;;;;;;;22.05;11.20;;;;;;;;;;5095018;28;20024;-67
2022/02/20 09:37:54;;;;;;;20.33;10.52;;;;;;;;;;5095287;28;20028;-64
2022/02/20 09:40:20;;;;;;;18.05;9.57;;;;;;;;;;5078768;28;20028;-65
2022/02/20 09:42:47;;;;;;;21.38;11.65;;;;;;;;;;5115283;28;20059;-64
2022/02/20 09:45:13;;;;;;;21.48;11.63;;;;;;;;;;5096942;28;20104;-65
2022/02/20 09:47:40;;;;;;;24.30;12.80;;;;;;;;;;5115079;28;20089;-64
2022/02/20 09:50:07;;;;;;;22.48;11.85;;;;;;;;;;5115168;28;20035;-65
2022/02/20 09:52:34;;;;;;;30.85;13.68;;;;;;;;;;5114886;28;20032;-64
2022/02/20 09:55:00;;;;;;;41.15;18.48;;;;;;;;;;5115001;28;20102;-64
2022/02/20 09:57:26;;;;;;;18.08;10.32;;;;;;;;;;5115077;28;20031;-64
2022/02/20 09:59:52;;;;;;;17.52;10.43;;;;;;;;;;5114947;28;20115;-69
2022/02/20 10:02:20;;;;;;;41.30;23.00;;;;;;;;;;5114926;28;20027;-64
2022/02/20 10:04:47;;;;;;;24.15;11.23;;;;;;;;;;5096674;28;20479;-64
2022/02/20 10:07:26;;;;;;;35.17;19.65;;;;;;;;;;5114906;28;20039;-64
2022/02/20 10:09:52;;;;;;;27.00;14.73;;;;;;;;;;5096628;28;20035;-64
2022/02/20 10:12:20;;;;;;;18.73;11.90;;;;;;;;;;5114538;28;20037;-65
2022/02/20 10:14:46;;;;;;;22.75;12.25;;;;;;;;;;5114453;28;20048;-66
2022/02/20 10:17:16;;;;;;;19.63;11.77;;;;;;;;;;5096481;28;20031;-66
2022/02/20 10:19:51;;;;;;;16.25;11.07;;;;;;;;;;5114651;28;20027;-67
2022/02/20 10:22:47;;;;;;;76.03;48.00;;;;;;;;;;5096062;28;20031;-66
2022/02/20 10:25:14;;;;;;;43.58;26.00;;;;;;;;;;5092938;28;20040;-67
2022/02/20 10:27:53;;;;;;;21.63;11.15;;;;;;;;;;5096195;28;20110;-65
2022/02/20 10:30:23;;;;;;;23.00;10.77;;;;;;;;;;5114352;28;20088;-68
2022/02/20 10:33:05;;;;;;;18.75;11.75;;;;;;;;;;5114570;28;20030;-67
2022/02/20 10:35:35;;;;;;;15.95;10.93;;;;;;;;;;5114438;28;20472;-67
2022/02/20 10:38:08;;;;;;;23.67;14.35;;;;;;;;;;5095899;28;20059;-68
2022/02/20 10:40:34;;;;;;;19.17;11.77;;;;;;;;;;5114284;28;20080;-67
2022/02/20 10:43:02;;;;;;;22.65;13.43;;;;;;;;;;5114336;28;20027;-65
2022/02/20 10:45:33;;;;;;;25.05;13.38;;;;;;;;;;5093613;28;20027;-69
2022/02/20 10:48:00;;;;;;;18.92;11.02;;;;;;;;;;5093911;28;20457;-67
2022/02/20 10:50:28;;;;;;;14.05;8.52;;;;;;;;;;5093814;28;20020;-69
2022/02/20 10:53:07;;;;;;;16.17;8.18;;;;;;;;;;5092344;28;20389;-64
2022/02/20 10:55:38;;;;;;;17.10;9.18;;;;;;;;;;5093755;28;20035;-64
2022/02/20 10:58:11;;;;;;;18.33;8.75;;;;;;;;;;5093637;28;20040;-65
2022/02/20 11:00:46;;;;;;;18.17;9.80;;;;;;;;;;5092280;28;20066;-64
2022/02/20 11:03:12;;;;;;;18.63;9.90;;;;;;;;;;5092252;28;20111;-65
2022/02/20 11:05:39;;;;;;;23.00;12.25;;;;;;;;;;5093554;28;20028;-64
2022/02/20 11:08:06;;;;;;;26.88;14.93;;;;;;;;;;5093399;28;20491;-65
2022/02/20 11:10:33;;;;;;;28.95;16.42;;;;;;;;;;5093147;28;20040;-63
2022/02/20 11:13:00;;;;;;;27.75;18.08;;;;;;;;;;5075618;28;20410;-70
2022/02/20 11:15:27;;;;;;;31.35;17.77;;;;;;;;;;5074711;28;20052;-68
2022/02/20 11:17:55;;;;;;;28.23;15.57;;;;;;;;;;5093317;28;20066;-65
2022/02/20 11:20:22;;;;;;;31.45;16.95;;;;;;;;;;5093108;28;20172;-66
2022/02/20 11:22:51;;;;;;;28.48;17.02;;;;;;;;;;5092552;28;20024;-67
2022/02/20 11:25:19;;;;;;;37.92;21.40;;;10.40;99.90;;;;;;5092357;28;20111;-64
2022/02/20 11:27:47;;;;;;;26.05;15.95;;;10.40;99.90;;;;;;5092931;28;20565;-64
2022/02/20 11:30:13;;;;;;;26.20;17.02;;;10.60;99.90;;;;;;5092946;28;20218;-65
2022/02/20 11:32:41;;;;;;;28.40;15.88;;;10.70;99.90;;;;;;5093499;28;20046;-65
2022/02/20 11:35:09;;;;;;;24.13;15.55;;;10.70;99.90;;;;;;5091858;28;20116;-70
2022/02/20 11:37:55;;;;;;;27.38;16.98;;;11.90;99.90;;;;;;5092849;28;20035;-68
2022/02/20 11:40:23;;;;;;;28.63;17.13;;;12.40;98.30;;;;;;5092765;28;20141;-65
2022/02/20 11:42:59;;;;;;;27.42;17.27;;;;;;;;;;5092923;28;20028;-64
2022/02/20 11:45:29;;;;;;;23.98;14.18;;;13.40;94.40;;;;;;5093062;28;20107;-73
2022/02/20 11:48:05;;;;;;;14.27;8.48;;;;;;;;;;5091708;28;20028;-65
2022/02/20 11:50:42;;;;;;;14.23;8.52;;;13.90;91.80;;;;;;5092859;28;20032;-68
2022/02/20 11:53:10;;;;;;;16.02;9.60;;;13.40;87.60;;;;;;5093014;28;20020;-64
2022/02/20 11:55:38;;;;;;;19.98;10.05;;;;;;;;;;5091379;28;20051;-66
2022/02/20 11:58:21;;;;;;;15.50;9.05;;;13.40;91.30;;;;;;5092809;28;20471;-67
2022/02/20 12:01:05;;;;;;;16.38;9.88;;;15.10;86.60;;;;;;5105184;28;20036;-64
2022/02/20 12:03:46;;;;;;;12.82;6.85;;;14.40;85.50;;;;;;5094925;28;20139;-65
2022/02/20 12:06:17;;;;;;;13.25;7.85;;;16.60;81.80;;;;;;5113040;28;20047;-65
2022/02/20 12:08:58;;;;;;;13.43;7.68;;;18.40;71.90;;;;;;5113068;28;20027;-67
2022/02/20 12:11:41;;;;;;;11.25;6.38;;;19.10;68.60;;;;;;5113040;28;20031;-64
2022/02/20 12:14:29;;;;;;;10.02;5.70;;;19.80;66.90;;;;;;5092081;28;20055;-63
2022/02/20 12:16:57;;;;;;;9.02;4.70;;;20.40;65.70;;;;;;5092759;28;20119;-64
2022/02/20 12:19:32;;;;;;;6.22;4.18;;;;;;;;;;5092668;28;20032;-64
2022/02/20 12:22:01;;;;;;;6.03;3.85;;;;;;;;;;5074134;28;20548;-64
2022/02/20 12:24:49;;;;;;;9.65;6.43;;;19.00;67.50;;;;;;5091775;28;20028;-64
2022/02/20 12:27:26;;;;;;;7.90;5.00;;;14.60;81.20;;;;;;5091492;28;20068;-65
2022/02/20 12:30:03;;;;;;;13.13;6.35;;;13.30;86.60;;;;;;5092388;28;20039;-64
2022/02/20 12:32:30;;;;;;;10.18;6.00;;;12.70;88.50;;;;;;5074217;28;20428;-66
2022/02/20 12:34:58;;;;;;;14.65;7.43;;;12.40;90.70;;;;;;5074420;28;20024;-69
2022/02/20 12:37:35;;;;;;;11.15;7.03;;;12.50;92.50;;;;;;5095723;28;20039;-66
2022/02/20 12:40:09;;;;;;;12.50;7.15;;;12.50;93.00;;;;;;5095526;28;20504;-66
2022/02/20 12:42:57;;;;;;;10.68;6.97;;;12.10;93.70;;;;;;5097040;28;20023;-65
2022/02/20 12:45:32;;;;;;;12.20;7.38;;;11.90;93.50;;;;;;5116437;28;20020;-68
2022/02/20 12:48:01;;;;;;;12.52;8.60;;;11.80;99.90;;;;;;5097999;28;20024;-66
2022/02/20 12:50:35;;;;;;;15.35;9.10;;;11.90;99.90;;;;;;5097704;28;20036;-67
2022/02/20 12:53:03;;;;;;;11.05;7.95;;;12.10;99.90;;;;;;5116339;28;20031;-66
2022/02/20 12:55:29;;;;;;;14.23;9.23;;;11.40;95.80;;;;;;5116211;28;20103;-66
2022/02/20 12:58:01;;;;;;;14.32;9.00;;;11.40;99.90;;;;;;5116000;28;20114;-67
2022/02/20 13:00:30;;;;;;;16.10;9.38;;;12.60;99.90;;;;;;5115953;28;20032;-67
2022/02/20 13:02:57;;;;;;;11.10;7.70;;;12.10;95.70;;;;;;5115953;28;20019;-66
2022/02/20 13:05:29;;;;;;;15.77;8.32;;;12.30;94.90;;;;;;5102018;28;20024;-66
2022/02/20 13:07:58;;;;;;;18.05;10.32;;;12.00;98.40;;;;;;5095489;28;20032;-66
2022/02/20 13:10:33;;;;;;;14.50;9.23;;;12.30;95.60;;;;;;5095304;28;20039;-65
2022/02/20 13:13:11;;;;;;;14.73;9.25;;;12.40;99.90;;;;;;5095483;28;20038;-66
2022/02/20 13:15:50;;;;;;;18.25;11.93;;;13.80;93.30;;;;;;5094638;28;20051;-67
2022/02/20 13:18:19;;;;;;;26.98;16.15;;;13.80;91.10;;;;;;5076686;28;20031;-66
2022/02/20 13:20:51;;;;;;;22.83;17.38;;;12.70;93.90;;;;;;5076869;28;20055;-66
2022/02/20 13:23:29;;;;;;;21.38;18.33;;;12.40;93.80;;;;;;5095358;28;20074;-68
2022/02/20 13:26:13;;;;;;;23.55;16.15;;;12.60;92.80;;;;;;5076946;28;20046;-66
2022/02/20 13:28:58;;;;;;;19.10;15.15;;;15.00;90.20;;;;;;5077061;28;20377;-67
2022/02/20 13:31:35;;;;;;;17.58;13.77;;;16.30;86.30;;;;;;5095072;28;20040;-67
2022/02/20 13:34:01;;;;;;;16.15;12.88;;;15.30;84.60;;;;;;5094574;28;20425;-67
2022/02/20 13:36:34;;;;;;;17.17;14.40;;;13.40;90.20;;;;;;5076329;28;20045;-67
2022/02/20 13:39:17;;;;;;;21.92;13.80;;;13.60;91.30;;;;;;5095038;28;20111;-66
2022/02/20 13:41:49;;;;;;;15.88;14.05;;;12.80;92.40;;;;;;5077895;28;20489;-66
2022/02/20 13:44:24;;;;;;;18.98;15.90;;;12.30;94.60;;;;;;5096088;28;20036;-66
2022/02/20 13:46:50;;;;;;;20.70;17.60;;;12.00;94.90;;;;;;5114447;28;20111;-66
2022/02/20 13:49:25;;;;;;;29.42;18.17;;;11.40;99.90;;;;;;5096375;28;20023;-66
2022/02/20 13:51:58;;;;;;;21.13;17.45;;;11.20;97.80;;;;;;5114971;28;20020;-66
2022/02/20 13:54:34;;;;;;;25.58;16.67;;;10.90;99.60;;;;;;5096760;28;20464;-66
2022/02/20 13:57:00;;;;;;;27.80;18.35;;;;;;;;;;5114986;28;20038;-66
2022/02/20 13:59:30;;;;;;;21.15;17.02;;;10.80;99.90;;;;;;5096628;28;20055;-66
2022/02/20 14:02:07;;;;;;;28.05;20.13;;;10.70;99.90;;;;;;5114941;28;20533;-67
2022/02/20 14:04:33;;;;;;;24.33;18.27;;;10.60;99.90;;;;;;5095666;28;20032;-66
2022/02/20 14:07:05;;;;;;;27.40;19.65;;;10.60;99.90;;;;;;5075783;28;20093;-65
2022/02/20 14:09:34;;;;;;;24.98;19.73;;;10.50;99.90;;;;;;5076177;28;20036;-66
2022/02/20 14:12:16;;;;;;;27.65;19.65;;;10.50;99.90;;;;;;5094692;28;20028;-66
2022/02/20 14:15:07;;;;;;;30.10;21.08;;;10.40;99.90;;;;;;5095622;28;20502;-66